Time;durP1;ratioP1;P1;durP2;ratioP2;P2;SDS_P1;SDS_P2;PMS_P1;PMS_P2;Temp;Humidity;BMP_temperature;BMP_pressure;BME280_temperature;BME280_humidity;BME280_pressure;Samples;Min_cycle;Max_cycle;Signal;HPM_P1;HPM_P2
2023/11/16 00:01:49;;;;;;;8.10;5.50;;;;;;;12.00;100.00;98441.48;107260;1253;60651;-61
2023/11/16 00:04:17;;;;;;;7.40;5.90;;;;;;;12.00;100.00;98442.95;105104;1254;73550;-61
2023/11/16 00:06:45;;;;;;;5.90;5.40;;;;;;;12.02;100.00;98444.87;105130;1267;70235;-60
2023/11/16 00:09:14;;;;;;;;;;;;;;;12.04;100.00;98446.17;104358;1266;73361;-60
2023/11/16 00:11:42;;;;;;;6.40;5.40;;;;;;;12.05;100.00;98443.27;104509;1254;62047;-61
2023/11/16 00:14:13;;;;;;;6.80;4.80;;;;;;;12.05;100.00;98444.85;104667;1254;60463;-61
2023/11/16 00:16:42;;;;;;;5.80;5.30;;;;;;;12.06;100.00;98443.35;104369;1260;74207;-60
2023/11/16 00:19:10;;;;;;;9.30;5.70;;;;;;;12.10;100.00;98445.95;104558;1269;69369;-61
2023/11/16 00:21:38;;;;;;;;;;;;;;;12.12;100.00;98448.59;104498;1254;72359;-61
2023/11/16 00:24:06;;;;;;;;;;;;;;;12.11;100.00;98449.20;104696;1255;61769;-61
2023/11/16 00:26:34;;;;;;;8.40;5.20;;;;;;;12.06;100.00;98446.35;104745;1254;59973;-61
2023/11/16 00:29:02;;;;;;;6.50;5.10;;;;;;;12.02;100.00;98450.64;104469;1269;73656;-60
2023/11/16 00:31:32;;;;;;;5.80;5.30;;;;;;;12.04;100.00;98452.14;104486;1258;70470;-61
2023/11/16 00:33:59;;;;;;;5.50;4.90;;;;;;;12.01;100.00;98453.93;108278;1254;72467;-60
2023/11/16 00:36:27;;;;;;;5.30;4.60;;;;;;;11.95;100.00;98457.98;107983;1254;60595;-61
2023/11/16 00:39:00;;;;;;;6.90;6.30;;;;;;;11.98;100.00;98456.74;104911;1265;59879;-60
2023/11/16 00:41:29;;;;;;;6.50;5.80;;;;;;;12.01;100.00;98458.83;104590;1259;73644;-61
2023/11/16 00:43:57;;;;;;;6.60;5.90;;;;;;;12.01;100.00;98456.52;104900;1254;69474;-61
2023/11/16 00:46:25;;;;;;;7.70;6.80;;;;;;;12.03;100.00;98456.24;105392;1254;72398;-60
2023/11/16 00:48:53;;;;;;;7.60;6.70;;;;;;;11.99;100.00;98451.23;104344;1257;61347;-60
2023/11/16 00:51:21;;;;;;;6.60;5.90;;;;;;;12.03;100.00;98458.30;104398;1257;61192;-60
2023/11/16 00:53:49;;;;;;;6.20;5.60;;;;;;;12.06;100.00;98459.02;104408;1267;73631;-59
2023/11/16 00:56:18;;;;;;;6.00;5.40;;;;;;;12.08;100.00;98462.57;104316;1257;70022;-60
2023/11/16 00:58:45;;;;;;;6.80;4.80;;;;;;;12.11;100.00;98465.73;104401;1253;72377;-60
2023/11/16 01:01:15;;;;;;;6.20;5.60;;;;;;;12.13;100.00;98464.02;104393;1260;60666;-61
2023/11/16 01:03:43;;;;;;;5.60;5.10;;;;;;;12.14;100.00;98466.39;104414;1255;60542;-62
2023/11/16 01:06:13;;;;;;;7.00;5.50;;;;;;;12.14;100.00;98464.83;104417;1256;74529;-61
2023/11/16 01:08:41;;;;;;;5.80;5.20;;;;;;;12.18;100.00;98465.39;104529;1260;68548;-60
2023/11/16 01:11:09;;;;;;;6.30;5.70;;;;;;;12.23;100.00;98468.05;104673;1257;72327;-61
2023/11/16 01:13:40;;;;;;;5.80;5.30;;;;;;;12.24;100.00;98465.86;104407;1255;60958;-62
2023/11/16 01:16:17;;;;;;;6.10;5.50;;;;;;;12.23;100.00;98466.10;104531;1257;60529;-64
2023/11/16 01:18:52;;;;;;;6.50;5.70;;;;;;;12.23;100.00;98465.58;104399;1265;73702;-62
2023/11/16 01:21:19;;;;;;;7.60;5.20;;;;;;;12.20;100.00;98471.92;104489;1257;69452;-61
2023/11/16 01:23:48;;;;;;;5.40;4.90;;;;;;;12.18;100.00;98471.71;104587;1255;72484;-61
2023/11/16 01:26:16;;;;;;;7.40;5.40;;;;;;;12.16;100.00;98468.00;104429;1254;60831;-61
2023/11/16 01:28:58;;;;;;;5.90;5.30;;;;;;;12.18;100.00;98468.91;104739;1254;60036;-61
2023/11/16 01:31:26;;;;;;;6.10;5.60;;;;;;;12.19;100.00;98469.91;104416;1255;73707;-61
2023/11/16 01:33:54;;;;;;;5.30;4.90;;;;;;;12.20;100.00;98468.77;107730;1253;68609;-62
2023/11/16 01:36:24;;;;;;;5.20;4.70;;;;;;;12.23;100.00;98471.41;108312;1252;72371;-63
2023/11/16 01:38:52;;;;;;;5.20;4.60;;;;;;;12.21;100.00;98471.86;104588;1267;59932;-62
2023/11/16 01:41:20;;;;;;;6.20;4.80;;;;;;;12.20;100.00;98474.23;105041;1252;60648;-61
2023/11/16 01:43:49;;;;;;;4.70;4.30;;;;;;;12.20;100.00;98474.09;105415;1253;74476;-61
2023/11/16 01:46:17;;;;;;;4.90;4.40;;;;;;;12.26;100.00;98471.36;104526;1270;69115;-61
2023/11/16 01:48:45;;;;;;;5.60;4.90;;;;;;;12.27;100.00;98471.48;105212;1254;72530;-61
2023/11/16 01:51:14;;;;;;;5.90;4.90;;;;;;;12.22;100.00;98470.90;104806;1257;61574;-61
2023/11/16 01:53:47;;;;;;;5.70;4.90;;;;;;;12.21;100.00;98467.14;105250;1254;60658;-60
2023/11/16 01:56:15;;;;;;;5.30;4.80;;;;;;;12.23;100.00;98464.52;106796;1253;74461;-60
2023/11/16 01:58:44;;;;;;;4.70;4.30;;;;;;;12.21;100.00;98460.64;108361;1253;69186;-61
2023/11/16 02:01:12;;;;;;;5.50;4.90;;;;;;;12.21;100.00;98467.63;108179;1253;72345;-61
2023/11/16 02:03:40;;;;;;;4.80;4.30;;;;;;;12.23;100.00;98465.92;108176;1253;60591;-61
2023/11/16 02:06:08;;;;;;;4.80;4.30;;;;;;;12.22;100.00;98474.60;106135;1252;60002;-60
2023/11/16 02:08:36;;;;;;;;;;;;;;;12.24;100.00;98469.55;104517;1258;73730;-61
2023/11/16 02:11:04;;;;;;;6.90;4.40;;;;;;;12.25;100.00;98473.33;104803;1260;69212;-60
2023/11/16 02:13:32;;;;;;;5.20;4.70;;;;;;;12.24;100.00;98474.34;104312;1263;72453;-60
2023/11/16 02:16:01;;;;;;;5.20;4.60;;;;;;;12.25;100.00;98471.23;104593;1253;61069;-60
2023/11/16 02:18:29;;;;;;;5.70;4.20;;;;;;;12.28;100.00;98470.69;104497;1257;59811;-60
2023/11/16 02:20:58;;;;;;;5.10;4.40;;;;;;;12.29;100.00;98473.26;104912;1257;74483;-64
2023/11/16 02:23:25;;;;;;;5.20;4.70;;;;;;;12.30;100.00;98473.73;104577;1256;69351;-61
2023/11/16 02:25:56;;;;;;;4.70;4.20;;;;;;;12.32;100.00;98476.77;104502;1255;72388;-60
2023/11/16 02:28:24;;;;;;;4.50;4.10;;;;;;;12.31;100.00;98476.98;104416;1257;60699;-60
2023/11/16 02:30:52;;;;;;;5.10;4.30;;;;;;;12.31;100.00;98481.36;104426;1254;60620;-59
2023/11/16 02:33:20;;;;;;;4.00;3.70;;;;;;;12.31;100.00;98480.00;105628;1252;72685;-61
2023/11/16 02:35:48;;;;;;;4.50;4.10;;;;;;;12.35;100.00;98483.57;105809;1252;69101;-61
2023/11/16 02:38:17;;;;;;;4.70;4.00;;;;;;;12.38;100.00;98483.52;105864;1253;73121;-60
2023/11/16 02:40:45;;;;;;;4.40;4.00;;;;;;;12.41;100.00;98485.29;105548;1254;60769;-60
2023/11/16 02:43:13;;;;;;;;;;;;;;;12.42;100.00;98488.39;105047;1258;60529;-60
2023/11/16 02:45:41;;;;;;;4.20;3.90;;;;;;;12.43;100.00;98486.17;105341;1254;74049;-60
2023/11/16 02:48:09;;;;;;;;;;;;;;;12.39;100.00;98486.98;105230;1254;69601;-60
2023/11/16 02:50:37;;;;;;;4.30;3.90;;;;;;;12.39;100.00;98491.07;104477;1253;72447;-61
2023/11/16 02:53:05;;;;;;;3.90;3.60;;;;;;;12.34;100.00;98491.89;104398;1256;60593;-61
2023/11/16 02:55:34;;;;;;;6.20;4.50;;;;;;;12.34;100.00;98496.11;104444;1254;60792;-60
2023/11/16 02:58:03;;;;;;;6.10;3.80;;;;;;;12.32;100.00;98501.52;104463;1257;74178;-62
2023/11/16 03:00:32;;;;;;;4.10;3.70;;;;;;;12.34;100.00;98504.94;104437;1257;69121;-67
2023/11/16 03:03:02;;;;;;;4.40;3.90;;;;;;;12.34;100.00;98508.80;104635;1259;73845;-61
2023/11/16 03:05:32;;;;;;;5.90;4.60;;;;;;;12.28;100.00;98511.13;104892;1254;60626;-59
2023/11/16 03:08:01;;;;;;;4.60;4.20;;;;;;;12.24;100.00;98514.17;104471;1260;60108;-61
2023/11/16 03:10:29;;;;;;;5.40;4.30;;;;;;;12.22;100.00;98508.16;104487;1254;72850;-60
2023/11/16 03:12:57;;;;;;;5.80;4.10;;;;;;;12.28;100.00;98513.56;104506;1271;69246;-62
2023/11/16 03:15:26;;;;;;;5.70;4.90;;;;;;;12.26;100.00;98514.39;104645;1254;72961;-60
2023/11/16 03:17:56;;;;;;;4.90;4.50;;;;;;;12.25;100.00;98513.24;104339;1254;60929;-61
2023/11/16 03:20:25;;;;;;;5.10;4.50;;;;;;;12.28;100.00;98516.36;104448;1269;59476;-60
2023/11/16 03:22:53;;;;;;;5.60;5.10;;;;;;;12.28;100.00;98517.41;104761;1253;74053;-61
2023/11/16 03:25:21;;;;;;;;;;;;;;;12.26;100.00;98516.52;104391;1254;69049;-60
2023/11/16 03:27:49;;;;;;;4.60;4.20;;;;;;;12.24;100.00;98517.19;104575;1254;72480;-60
2023/11/16 03:30:16;;;;;;;5.30;4.80;;;;;;;12.21;100.00;98519.81;104438;1253;60567;-61
2023/11/16 03:32:48;;;;;;;5.10;4.70;;;;;;;12.18;100.00;98518.95;104755;1254;61181;-61
2023/11/16 03:35:15;;;;;;;4.80;4.40;;;;;;;12.16;100.00;98517.38;104417;1260;72846;-61
2023/11/16 03:37:46;;;;;;;4.60;4.20;;;;;;;12.16;100.00;98520.32;107603;1253;69312;-61
2023/11/16 03:40:13;;;;;;;5.50;5.00;;;;;;;12.19;100.00;98518.93;105457;1253;72915;-62
2023/11/16 03:42:42;;;;;;;5.70;4.70;;;;;;;12.15;100.00;98521.14;104687;1254;61665;-61
2023/11/16 03:45:11;;;;;;;6.00;5.00;;;;;;;12.12;100.00;98520.46;104367;1257;60784;-62
2023/11/16 03:47:40;;;;;;;5.70;4.70;;;;;;;12.06;100.00;98514.86;104658;1258;74460;-62
2023/11/16 03:50:10;;;;;;;5.70;4.80;;;;;;;12.03;100.00;98517.73;104643;1266;69219;-62
2023/11/16 03:52:39;;;;;;;5.50;5.10;;;;;;;12.00;100.00;98522.67;104645;1254;73162;-62
2023/11/16 03:55:07;;;;;;;6.10;4.70;;;;;;;11.98;100.00;98519.95;104849;1253;60680;-60
2023/11/16 03:57:35;;;;;;;5.30;4.90;;;;;;;11.96;100.00;98523.46;105310;1255;59877;-61
2023/11/16 04:00:04;;;;;;;5.30;4.80;;;;;;;11.93;100.00;98529.08;108287;1253;74344;-61
2023/11/16 04:02:38;;;;;;;5.50;5.00;;;;;;;11.89;100.00;98531.79;107473;1253;69760;-61
2023/11/16 04:05:06;;;;;;;;;;;;;;;11.87;100.00;98532.42;104571;1270;72337;-60
2023/11/16 04:07:34;;;;;;;6.10;5.50;;;;;;;11.88;100.00;98534.12;104812;1256;60972;-61
2023/11/16 04:10:04;;;;;;;5.30;4.90;;;;;;;11.86;100.00;98535.61;104648;1257;60690;-61
2023/11/16 04:12:32;;;;;;;5.40;4.90;;;;;;;11.85;100.00;98538.34;105237;1256;73547;-60
2023/11/16 04:15:01;;;;;;;5.80;5.20;;;;;;;11.85;100.00;98538.65;104509;1270;69433;-61
2023/11/16 04:17:29;;;;;;;6.50;5.30;;;;;;;11.84;100.00;98537.52;104639;1259;72489;-59
2023/11/16 04:19:57;;;;;;;;;;;;;;;11.86;100.00;98540.55;104678;1254;60660;-61
2023/11/16 04:22:25;;;;;;;5.50;4.20;;;;;;;11.90;100.00;98542.29;104376;1264;60148;-60
2023/11/16 04:24:53;;;;;;;5.20;4.80;;;;;;;11.87;100.00;98539.60;104493;1253;73744;-60
2023/11/16 04:27:26;;;;;;;5.00;4.60;;;;;;;11.91;100.00;98542.20;104621;1257;69344;-59
2023/11/16 04:29:54;;;;;;;5.20;4.70;;;;;;;11.90;100.00;98546.10;104462;1269;72386;-60
2023/11/16 04:32:23;;;;;;;4.90;4.50;;;;;;;11.93;100.00;98549.61;104642;1253;60682;-60
2023/11/16 04:34:51;;;;;;;4.90;4.10;;;;;;;11.97;100.00;98552.31;106593;1251;60094;-60
2023/11/16 04:37:19;;;;;;;5.10;4.00;;;;;;;12.00;100.00;98552.34;108361;1253;74027;-62
2023/11/16 04:39:47;;;;;;;4.70;3.90;;;;;;;11.99;100.00;98552.21;106147;1253;69007;-60
2023/11/16 04:42:14;;;;;;;3.10;2.90;;;;;;;11.94;100.00;98549.56;104452;1257;72496;-64
2023/11/16 04:44:44;;;;;;;3.50;3.20;;;;;;;11.92;100.00;98558.13;105162;1253;61528;-60
2023/11/16 04:47:11;;;;;;;3.20;3.00;;;;;;;11.98;100.00;98560.52;105189;1258;60579;-60
2023/11/16 04:49:41;;;;;;;3.00;2.80;;;;;;;11.99;100.00;98566.80;104731;1262;74546;-60
2023/11/16 04:52:10;;;;;;;2.40;2.20;;;;;;;11.97;100.00;98574.45;104466;1275;69149;-59
2023/11/16 04:54:39;;;;;;;3.60;2.20;;;;;;;11.94;100.00;98572.36;104544;1257;73264;-60
2023/11/16 04:57:07;;;;;;;2.20;2.00;;;;;;;11.83;100.00;98574.98;104573;1255;60608;-60
2023/11/16 04:59:35;;;;;;;2.10;2.00;;;;;;;11.75;100.00;98581.14;104576;1254;60597;-61
2023/11/16 05:02:03;;;;;;;1.90;1.70;;;;;;;11.65;100.00;98582.99;105140;1252;74046;-60
2023/11/16 05:04:32;;;;;;;2.90;2.10;;;;;;;11.62;100.00;98583.38;104452;1257;70138;-60
2023/11/16 05:07:00;;;;;;;1.80;1.70;;;;;;;11.54;100.00;98586.72;104618;1256;73390;-60
2023/11/16 05:09:28;;;;;;;1.90;1.80;;;;;;;11.46;100.00;98585.80;104507;1260;60958;-59
2023/11/16 05:11:55;;;;;;;1.80;1.70;;;;;;;11.42;100.00;98583.94;104460;1254;60862;-60
2023/11/16 05:14:23;;;;;;;1.90;1.40;;;;;;;11.44;100.00;98591.33;104531;1257;73791;-60
2023/11/16 05:16:51;;;;;;;1.60;1.50;;;;;;;11.43;100.00;98598.98;104424;1256;69271;-60
2023/11/16 05:19:19;;;;;;;1.30;1.20;;;;;;;11.45;100.00;98591.80;104782;1253;72396;-61
2023/11/16 05:23:54;;;;;;;1.30;1.20;;;;;;;10.81;100.00;98593.91;102191;1291;614118;-62
2023/11/16 05:26:25;;;;;;;0.90;0.90;;;;;;;11.42;100.00;98606.06;103867;1272;60674;-61
2023/11/16 05:28:52;;;;;;;1.10;1.00;;;;;;;11.40;100.00;98605.26;103643;1267;60230;-59
2023/11/16 05:31:19;;;;;;;1.20;0.90;;;;;;;11.42;100.00;98608.48;103909;1269;72002;-59
2023/11/16 05:33:46;;;;;;;1.70;1.10;;;;;;;11.37;100.00;98610.19;103678;1271;70022;-59
2023/11/16 05:36:12;;;;;;;1.00;0.90;;;;;;;11.44;100.00;98612.92;106684;1264;187781;-59
2023/11/16 05:38:39;;;;;;;1.20;1.10;;;;;;;11.48;100.00;98614.44;106419;1266;61445;-59
2023/11/16 05:41:06;;;;;;;1.80;0.90;;;;;;;11.49;100.00;98620.17;104820;1257;60197;-59
2023/11/16 05:43:34;;;;;;;1.00;0.90;;;;;;;11.48;100.00;98618.49;104802;1261;72565;-60
2023/11/16 05:46:00;;;;;;;1.40;1.00;;;;;;;11.47;100.00;98626.80;104385;1271;69599;-60
2023/11/16 05:48:28;;;;;;;1.00;0.90;;;;;;;11.47;100.00;98630.66;104815;1258;72694;-60
2023/11/16 05:50:57;;;;;;;1.90;0.90;;;;;;;11.47;100.00;98632.23;104402;1278;61699;-60
2023/11/16 05:53:23;;;;;;;0.90;0.80;;;;;;;11.46;100.00;98632.42;104267;1264;59899;-63
2023/11/16 05:55:52;;;;;;;2.10;0.70;;;;;;;11.41;100.00;98636.11;104031;1263;73605;-60
2023/11/16 05:58:19;;;;;;;0.80;0.80;;;;;;;11.38;100.00;98635.96;104205;1263;69111;-61
2023/11/16 06:00:46;;;;;;;1.90;0.60;;;;;;;11.36;100.00;98636.28;104063;1260;72353;-62
2023/11/16 06:03:13;;;;;;;1.00;1.00;;;;;;;11.35;100.00;98638.58;107503;1258;61831;-61
2023/11/16 06:05:41;;;;;;;0.60;0.60;;;;;;;11.38;100.00;98645.04;106098;1260;60907;-61
2023/11/16 06:08:08;;;;;;;0.80;0.80;;;;;;;11.38;100.00;98645.95;104257;1273;73711;-61
2023/11/16 06:10:35;;;;;;;0.70;0.70;;;;;;;11.38;100.00;98646.83;104109;1270;70285;-61
2023/11/16 06:13:03;;;;;;;1.40;1.30;;;;;;;11.31;100.00;98642.67;104577;1261;72863;-61
2023/11/16 06:15:30;;;;;;;;;;;;;;;11.31;100.00;98647.05;104767;1263;61509;-60
2023/11/16 06:18:01;;;;;;;1.00;1.00;;;;;;;11.24;100.00;98651.91;104477;1260;60205;-62
2023/11/16 06:20:28;;;;;;;2.10;1.00;;;;;;;11.17;100.00;98652.16;104046;1262;72952;-60
2023/11/16 06:22:55;;;;;;;0.70;0.70;;;;;;;11.13;100.00;98651.32;104672;1261;69787;-60
2023/11/16 06:25:22;;;;;;;0.90;0.80;;;;;;;11.11;100.00;98648.46;104283;1263;71685;-60
2023/11/16 06:27:50;;;;;;;1.80;0.60;;;;;;;11.11;100.00;98646.71;104494;1264;62262;-60
2023/11/16 06:30:19;;;;;;;0.90;0.80;;;;;;;11.16;100.00;98643.11;103918;1280;59934;-61
2023/11/16 06:32:47;;;;;;;1.10;0.60;;;;;;;11.17;100.00;98647.58;105871;1260;72341;-61
2023/11/16 06:35:14;;;;;;;0.40;0.40;;;;;;;11.17;100.00;98648.42;104124;1262;70374;-60
2023/11/16 06:37:40;;;;;;;0.70;0.70;;;;;;;11.18;100.00;98647.02;106957;1259;72422;-60
2023/11/16 06:40:11;;;;;;;0.70;0.40;;;;;;;11.24;100.00;98650.16;105950;1260;61740;-60
2023/11/16 06:42:39;;;;;;;0.70;0.50;;;;;;;11.26;100.00;98654.92;104622;1260;61041;-60
2023/11/16 06:45:07;;;;;;;1.10;0.80;;;;;;;11.29;100.00;98657.88;104034;1282;72623;-60
2023/11/16 06:47:34;;;;;;;;;;;;;;;11.27;100.00;98662.39;104061;1261;68044;-61
2023/11/16 06:50:03;;;;;;;0.60;0.60;;;;;;;11.16;100.00;98660.42;104973;1260;72359;-60
2023/11/16 06:52:30;;;;;;;0.50;0.50;;;;;;;11.12;100.00;98664.53;104235;1260;61593;-60
2023/11/16 06:54:57;;;;;;;0.90;0.70;;;;;;;11.08;100.00;98662.52;104073;1267;59970;-62
2023/11/16 06:57:26;;;;;;;1.20;0.90;;;;;;;11.07;100.00;98670.61;103912;1263;73303;-62
2023/11/16 06:59:53;;;;;;;1.50;0.60;;;;;;;11.03;100.00;98671.92;103940;1264;69495;-60
2023/11/16 07:02:21;;;;;;;0.70;0.70;;;;;;;11.02;100.00;98671.64;104914;1260;72372;-60
2023/11/16 07:04:50;;;;;;;0.60;0.50;;;;;;;11.00;100.00;98680.52;104269;1262;60765;-60
2023/11/16 07:07:18;;;;;;;0.90;0.70;;;;;;;10.99;100.00;98679.52;104159;1260;59955;-60
2023/11/16 07:09:46;;;;;;;2.90;1.10;;;;;;;10.94;100.00;98686.48;104656;1261;71787;-60
2023/11/16 07:12:14;;;;;;;1.00;0.90;;;;;;;10.85;100.00;98684.06;104397;1273;69320;-60
2023/11/16 07:14:41;;;;;;;2.10;0.70;;;;;;;10.74;100.00;98686.45;104254;1264;72223;-59
2023/11/16 07:17:19;;;;;;;;;;;;;;;10.64;100.00;98690.72;104302;1264;60917;-59
2023/11/16 07:19:47;;;;;;;0.90;0.60;;;;;;;10.58;100.00;98693.01;104393;1260;59778;-60
2023/11/16 07:22:14;;;;;;;1.40;0.70;;;;;;;10.51;100.00;98698.41;104697;1259;72705;-59
2023/11/16 07:24:43;;;;;;;0.60;0.60;;;;;;;10.52;100.00;98701.88;104471;1260;68481;-60
2023/11/16 07:27:11;;;;;;;1.50;0.70;;;;;;;10.52;100.00;98706.13;104480;1260;72374;-58
2023/11/16 07:29:39;;;;;;;2.00;0.80;;;;;;;10.45;100.00;98706.83;104098;1260;60855;-60
2023/11/16 07:32:07;;;;;;;1.20;0.70;;;;;;;10.39;100.00;98713.50;104218;1264;59713;-59
2023/11/16 07:34:39;;;;;;;0.60;0.60;;;;;;;10.37;100.00;98717.85;104300;1262;71763;-60
2023/11/16 07:37:06;;;;;;;0.70;0.70;;;;;;;10.35;100.00;98717.60;106039;1260;69758;-59
2023/11/16 07:39:33;;;;;;;0.70;0.70;;;;;;;10.30;100.00;98721.52;104700;1259;72880;-60
2023/11/16 07:42:01;;;;;;;1.50;0.70;;;;;;;10.25;100.00;98722.14;104861;1261;62351;-60
2023/11/16 07:44:28;;;;;;;2.30;0.80;;;;;;;10.26;100.00;98725.77;105093;1261;60294;-59
2023/11/16 07:46:55;;;;;;;0.50;0.50;;;;;;;10.27;100.00;98727.27;105845;1257;73288;-59
2023/11/16 07:49:23;;;;;;;1.40;0.50;;;;;;;10.26;100.00;98733.80;104960;1261;68409;-60
2023/11/16 07:51:51;;;;;;;0.80;0.50;;;;;;;10.23;100.00;98735.71;104595;1262;75036;-60
2023/11/16 07:54:17;;;;;;;;;;;;;;;10.22;100.00;98738.79;104753;1259;60956;-60
2023/11/16 07:56:51;;;;;;;2.90;0.40;;;;;;;10.19;100.00;98739.65;104803;1259;59895;-59
2023/11/16 07:59:30;;;;;;;0.60;0.50;;;;;;;10.18;100.00;98749.00;104892;1261;72813;-60
2023/11/16 08:02:00;;;;;;;0.50;0.50;;;;;;;10.16;100.00;98754.19;104360;1260;70215;-61
2023/11/16 08:04:27;;;;;;;0.70;0.30;;;;;;;10.17;100.00;98762.50;105312;1259;72672;-60
2023/11/16 08:06:55;;;;;;;0.90;0.30;;;;;;;10.19;100.00;98766.63;107510;1258;60664;-59
2023/11/16 08:09:24;;;;;;;0.30;0.30;;;;;;;10.20;100.00;98772.33;105787;1259;59664;-60
2023/11/16 08:11:54;;;;;;;0.30;0.20;;;;;;;10.22;100.00;98770.33;105326;1257;72851;-60
2023/11/16 08:14:26;;;;;;;0.20;0.20;;;;;;;10.27;100.00;98780.20;105206;1258;69245;-59
2023/11/16 08:16:58;;;;;;;0.30;0.30;;;;;;;10.26;100.00;98779.36;104241;1266;73021;-59
2023/11/16 08:19:31;;;;;;;9.90;1.60;;;;;;;10.22;100.00;98790.28;104218;1262;60771;-59
2023/11/16 08:22:01;;;;;;;2.90;0.50;;;;;;;10.18;100.00;98798.88;104505;1259;60465;-61
2023/11/16 08:24:28;;;;;;;0.50;0.30;;;;;;;10.10;100.00;98799.84;104013;1274;72837;-59
2023/11/16 08:26:58;;;;;;;2.10;0.60;;;;;;;10.07;100.00;98805.77;104183;1258;69133;-60
2023/11/16 08:29:25;;;;;;;0.70;0.40;;;;;;;10.06;100.00;98810.41;103919;1260;72996;-60
2023/11/16 08:31:56;;;;;;;0.10;0.10;;;;;;;10.10;100.00;98808.27;104827;1258;61300;-60
2023/11/16 08:34:27;;;;;;;0.20;0.20;;;;;;;10.13;100.00;98800.55;105624;1255;60185;-59
2023/11/16 08:36:54;;;;;;;0.30;0.30;;;;;;;10.17;100.00;98802.30;105842;1254;72833;-59
2023/11/16 08:39:23;;;;;;;1.20;0.10;;;;;;;10.16;100.00;98799.88;107706;1254;69817;-60
2023/11/16 08:41:52;;;;;;;0.20;0.20;;;;;;;10.12;100.00;98802.71;104771;1257;73114;-60
2023/11/16 08:44:19;;;;;;;0.30;0.20;;;;;;;10.10;100.00;98803.36;105616;1254;60631;-59
2023/11/16 08:46:52;;;;;;;1.00;0.20;;;;;;;10.08;100.00;98806.63;105163;1257;59817;-58
2023/11/16 08:49:19;;;;;;;0.30;0.30;;;;;;;10.04;100.00;98811.73;104605;1258;73427;-60
2023/11/16 08:51:47;;;;;;;1.70;0.50;;;;;;;10.04;100.00;98813.63;105577;1254;70482;-59
2023/11/16 08:54:14;;;;;;;0.20;0.20;;;;;;;10.05;100.00;98817.83;104442;1257;72326;-59
2023/11/16 08:56:42;;;;;;;0.40;0.30;;;;;;;10.05;100.00;98821.48;104780;1254;59782;-59
2023/11/16 08:59:11;;;;;;;0.80;0.50;;;;;;;10.02;100.00;98811.32;104472;1258;59973;-58
2023/11/16 09:01:38;;;;;;;2.10;0.40;;;;;;;10.07;100.00;98823.45;105105;1255;72402;-57
2023/11/16 09:04:09;;;;;;;;;;;;;;;10.04;99.90;98824.16;104435;1254;70157;-58
2023/11/16 09:06:36;;;;;;;1.00;0.20;;;;;;;9.98;98.02;98822.38;104630;1255;73652;-59
2023/11/16 09:09:09;;;;;;;0.30;0.30;;;;;;;9.89;97.51;98820.06;104542;1261;61254;-58
2023/11/16 09:11:37;;;;;;;0.20;0.20;;;;;;;9.85;97.25;98820.98;105012;1255;59792;-59
2023/11/16 09:14:04;;;;;;;0.20;0.20;;;;;;;9.78;97.16;98821.88;105129;1254;73301;-59
2023/11/16 09:16:31;;;;;;;0.30;0.30;;;;;;;9.74;97.74;98818.89;104525;1255;69480;-58
2023/11/16 09:18:58;;;;;;;0.30;0.30;;;;;;;9.77;98.35;98819.64;104716;1254;72887;-59
2023/11/16 09:21:26;;;;;;;1.60;0.50;;;;;;;9.81;99.34;98822.95;104740;1256;61026;-59
2023/11/16 09:23:54;;;;;;;0.50;0.30;;;;;;;9.87;99.86;98821.04;105386;1257;60010;-60
2023/11/16 09:26:24;;;;;;;;;;;;;;;9.92;99.87;98820.38;104907;1254;71992;-59
2023/11/16 09:28:54;;;;;;;0.40;0.40;;;;;;;9.93;97.68;98820.87;105234;1256;70133;-59
2023/11/16 09:31:34;;;;;;;0.70;0.50;;;;;;;9.88;97.22;98824.84;104531;1264;72751;-59
2023/11/16 09:34:01;;;;;;;0.40;0.40;;;;;;;9.85;97.18;98817.48;104800;1257;60812;-58
2023/11/16 09:36:29;;;;;;;0.40;0.40;;;;;;;9.84;97.32;98817.15;104633;1258;60620;-59
2023/11/16 09:38:57;;;;;;;0.50;0.50;;;;;;;9.88;97.93;98812.08;108137;1254;73841;-59
2023/11/16 09:41:25;;;;;;;0.60;0.50;;;;;;;9.95;98.16;98819.21;106682;1253;69815;-59
2023/11/16 09:43:54;;;;;;;0.90;0.40;;;;;;;9.98;99.11;98822.02;105455;1255;72331;-58
2023/11/16 09:46:26;;;;;;;0.40;0.40;;;;;;;9.98;98.44;98824.30;105830;1253;61245;-58
2023/11/16 09:48:53;;;;;;;0.80;0.30;;;;;;;9.94;98.07;98827.86;105642;1253;60469;-58
2023/11/16 09:51:21;;;;;;;0.80;0.60;;;;;;;9.89;98.17;98829.67;105824;1255;73875;-58
2023/11/16 09:53:50;;;;;;;;;;;;;;;9.80;97.22;98835.95;104889;1255;70131;-57
2023/11/16 09:56:20;;;;;;;0.70;0.40;;;;;;;9.77;98.21;98832.78;105031;1255;72494;-56
2023/11/16 09:59:06;;;;;;;0.30;0.30;;;;;;;9.78;98.99;98838.88;104880;1263;60697;-58
2023/11/16 10:01:37;;;;;;;2.00;0.40;;;;;;;9.82;99.29;98838.43;105213;1255;60563;-59
2023/11/16 10:04:10;;;;;;;0.40;0.40;;;;;;;9.81;98.36;98841.85;104768;1255;74694;-58
2023/11/16 10:06:42;;;;;;;1.30;0.40;;;;;;;9.74;98.31;98838.33;105023;1255;69958;-60
2023/11/16 10:09:15;;;;;;;0.70;0.20;;;;;;;9.70;98.26;98840.27;108168;1254;73257;-60
2023/11/16 10:11:42;;;;;;;0.60;0.40;;;;;;;9.71;97.88;98838.64;108121;1254;60571;-60
2023/11/16 10:14:09;;;;;;;0.40;0.30;;;;;;;9.69;98.04;98835.10;105359;1254;59422;-58
2023/11/16 10:16:36;;;;;;;0.30;0.20;;;;;;;9.70;98.15;98840.13;105381;1256;73886;-60
2023/11/16 10:19:10;;;;;;;0.40;0.30;;;;;;;9.70;98.72;98836.46;105126;1254;70259;-60
2023/11/16 10:21:43;;;;;;;0.50;0.50;;;;;;;9.72;98.81;98839.13;104438;1258;72629;-59
2023/11/16 10:24:10;;;;;;;0.60;0.30;;;;;;;9.72;98.43;98834.57;105237;1260;60954;-59
2023/11/16 10:26:38;;;;;;;0.50;0.50;;;;;;;9.73;98.49;98834.34;104588;1254;60440;-59
2023/11/16 10:29:06;;;;;;;0.30;0.30;;;;;;;9.65;96.91;98837.92;104873;1256;75105;-59
2023/11/16 10:31:34;;;;;;;;;;;;;;;9.64;98.23;98839.73;105022;1254;69447;-59
2023/11/16 10:34:03;;;;;;;0.50;0.40;;;;;;;9.62;99.32;98830.39;104520;1257;72762;-59
2023/11/16 10:36:32;;;;;;;0.70;0.60;;;;;;;9.69;99.21;98839.48;104678;1254;61157;-59
2023/11/16 10:39:00;;;;;;;0.50;0.50;;;;;;;9.68;99.71;98841.45;107316;1254;61047;-60
2023/11/16 10:41:29;;;;;;;0.60;0.40;;;;;;;9.66;99.56;98850.29;107529;1254;74278;-59
2023/11/16 10:43:56;;;;;;;0.50;0.50;;;;;;;9.61;98.58;98852.31;104608;1255;69168;-59
2023/11/16 10:46:27;;;;;;;0.40;0.40;;;;;;;9.56;99.50;98855.00;105346;1255;73353;-60
2023/11/16 10:48:54;;;;;;;0.50;0.50;;;;;;;9.58;99.69;98859.14;105238;1254;60557;-60
2023/11/16 10:51:24;;;;;;;0.50;0.50;;;;;;;9.56;99.80;98861.17;104627;1267;60647;-59
2023/11/16 10:53:55;;;;;;;0.60;0.50;;;;;;;9.62;99.87;98863.30;104842;1254;73541;-59
2023/11/16 10:56:22;;;;;;;0.40;0.30;;;;;;;9.65;99.56;98863.50;104600;1258;70212;-59
2023/11/16 10:58:49;;;;;;;0.40;0.40;;;;;;;9.57;97.34;98863.38;104223;1261;72722;-60
2023/11/16 11:01:19;;;;;;;1.30;0.60;;;;;;;9.52;97.87;98862.89;104841;1255;61137;-60
2023/11/16 11:03:50;;;;;;;0.30;0.30;;;;;;;9.43;98.59;98861.30;105146;1254;60750;-59
2023/11/16 11:06:19;;;;;;;2.10;0.30;;;;;;;9.40;98.46;98861.77;104998;1254;72640;-58
2023/11/16 11:08:48;;;;;;;0.40;0.40;;;;;;;9.41;99.11;98860.15;105209;1255;69368;-63
2023/11/16 11:11:24;;;;;;;;;;;;;;;9.37;98.36;98868.43;104354;1256;72605;-61
2023/11/16 11:13:54;;;;;;;0.40;0.40;;;;;;;9.30;98.30;98868.04;105575;1254;61217;-60
2023/11/16 11:16:25;;;;;;;0.30;0.30;;;;;;;9.30;99.16;98870.35;104852;1256;60794;-59
2023/11/16 11:18:52;;;;;;;1.70;0.40;;;;;;;9.32;99.43;98873.02;105114;1255;73535;-61
2023/11/16 11:21:20;;;;;;;0.50;0.40;;;;;;;9.33;99.56;98877.69;104959;1257;68488;-60
2023/11/16 11:24:04;;;;;;;0.60;0.60;;;;;;;9.32;98.98;98872.84;105317;1256;72498;-60
2023/11/16 11:26:43;;;;;;;1.20;0.70;;;;;;;9.33;99.67;98874.87;104684;1255;60757;-60
2023/11/16 11:29:10;;;;;;;0.90;0.60;;;;;;;9.32;99.76;98872.66;104718;1258;60719;-60
2023/11/16 11:31:50;;;;;;;0.50;0.50;;;;;;;9.33;100.00;98874.89;105213;1254;74699;-60
2023/11/16 11:34:17;;;;;;;0.50;0.50;;;;;;;9.36;100.00;98870.73;104722;1254;69541;-61